KHVS/HVS METAR and TAF weather

Enter ICAO airport designator
Station Type Date Time Source
KHVS METAR 2019/04/21 07:55 UTC NOAA

KHVS 210755Z AUTO 23003KT 10SM CLR 04/04 A2994 RMK AO2


Station Type Date Time Source
KHVS Decoded METAR 2019/04/21 07:55 UTC NOAA

Station name not available
Apr 21, 2019 - 03:55 AM EDT / 2019.04.21 0755 UTC
Wind: from the SW (230 degrees) at 3 MPH (3 KT):0
Visibility: 10 mile(s):0
Sky conditions: clear
Temperature: 39 F (4 C)
Dew Point: 39 F (4 C)
Relative Humidity: 100%
Pressure (altimeter): 29.94 in. Hg (1013 hPa)
ob: KHVS 210755Z AUTO 23003KT 10SM CLR 04/04 A2994 RMK AO2
cycle: 8

Station Type Date Time Source
KHVS TAF UTC NOAA

Error!

Example: see airport list